Time;durP1;ratioP1;P1;durP2;ratioP2;P2;SDS_P1;SDS_P2;PMS_P1;PMS_P2;Temp;Humidity;BMP_temperature;BMP_pressure;BME280_temperature;BME280_humidity;BME280_pressure;Samples;Min_cycle;Max_cycle;Signal;HPM_P1;HPM_P2
2023/09/29 00:00:36;;;;;;;4.63;3.70;;;;;;;;;;4926700;29;20458;-91
2023/09/29 00:03:02;;;;;;;5.45;3.65;;;17.10;99.90;;;;;;4923786;29;20206;-89
2023/09/29 00:05:28;;;;;;;5.30;3.97;;;16.80;99.90;;;;;;4921210;29;20194;-90
2023/09/29 00:07:55;;;;;;;6.63;4.87;;;16.90;99.90;;;;;;4929322;29;20459;-89
2023/09/29 00:10:21;;;;;;;5.13;3.92;;;18.10;99.90;;;;;;4933037;28;20190;-89
2023/09/29 00:12:51;;;;;;;5.00;3.50;;;17.90;99.90;;;;;;4927518;29;20214;-92
2023/09/29 00:15:18;;;;;;;4.22;3.80;;;16.80;99.90;;;;;;4923426;29;20182;-89
2023/09/29 00:17:44;;;;;;;4.38;3.85;;;19.10;99.90;;;;;;4926063;29;20221;-89
2023/09/29 00:20:23;;;;;;;4.15;3.75;;;18.70;99.90;;;;;;4923246;29;20389;-89
2023/09/29 00:22:59;;;;;;;4.80;3.92;;;16.80;99.90;;;;;;4925572;29;20257;-90
2023/09/29 00:25:25;;;;;;;4.35;3.40;;;18.30;99.90;;;;;;4919497;29;20186;-89
2023/09/29 00:27:51;;;;;;;4.37;3.97;;;;;;;;;;4921806;29;20198;-89
2023/09/29 00:30:17;;;;;;;4.20;3.78;;;16.90;99.90;;;;;;4921007;29;20959;-89
2023/09/29 00:32:50;;;;;;;4.22;3.83;;;16.50;99.90;;;;;;4923413;29;20300;-89
2023/09/29 00:37:50;;;;;;;5.10;4.38;;;18.00;99.90;;;;;;4935025;29;20297;-90
2023/09/29 00:40:16;;;;;;;4.68;4.00;;;18.70;99.90;;;;;;4929645;29;20195;-89
2023/09/29 00:42:42;;;;;;;3.90;3.47;;;16.60;99.90;;;;;;4920330;29;20203;-91
2023/09/29 00:45:09;;;;;;;4.53;4.10;;;19.10;99.90;;;;;;4924853;29;20190;-89
2023/09/29 00:47:36;;;;;;;4.68;4.15;;;16.60;99.90;;;;;;4921100;29;20201;-91
2023/09/29 00:50:09;;;;;;;4.03;3.65;;;16.50;99.90;;;;;;4928633;29;20194;-89
2023/09/29 00:52:38;;;;;;;4.18;3.88;;;16.80;99.90;;;;;;4929990;29;20202;-91
2023/09/29 00:55:06;;;;;;;3.95;3.65;;;18.80;99.90;;;;;;4923456;29;20190;-91
2023/09/29 00:57:33;;;;;;;4.97;4.22;;;16.80;99.90;;;;;;4920537;29;20703;-90
2023/09/29 01:00:00;;;;;;;4.82;4.00;;;19.00;99.90;;;;;;4922529;29;20197;-91
2023/09/29 01:02:26;;;;;;;4.30;3.90;;;17.70;99.90;;;;;;4920533;29;20695;-91
2023/09/29 01:04:53;;;;;;;5.80;4.10;;;;;;;;;;4921465;29;20192;-91
2023/09/29 01:07:19;;;;;;;5.07;4.22;;;16.40;99.90;;;;;;4919353;29;20205;-91
2023/09/29 01:09:45;;;;;;;4.30;3.93;;;;;;;;;;4924116;29;20187;-89
2023/09/29 01:12:25;;;;;;;4.45;4.05;;;16.50;99.90;;;;;;4920797;29;20465;-89
2023/09/29 01:14:50;;;;;;;5.15;3.80;;;17.40;99.90;;;;;;4919423;29;20285;-91
2023/09/29 01:17:18;;;;;;;5.23;4.33;;;17.70;99.90;;;;;;4920748;29;20238;-89
2023/09/29 01:19:44;;;;;;;5.32;4.25;;;16.80;99.90;;;;;;4918842;29;20178;-88
2023/09/29 01:22:10;;;;;;;5.00;3.97;;;18.40;99.90;;;;;;4921809;29;20221;-90
2023/09/29 01:24:35;;;;;;;4.50;4.10;;;16.40;99.90;;;;;;4925871;29;20474;-89
2023/09/29 01:27:01;;;;;;;4.27;3.87;;;;;;;;;;4922980;29;20303;-89
2023/09/29 01:29:27;;;;;;;4.28;3.88;;;16.10;99.90;;;;;;4921666;29;20599;-89
2023/09/29 01:31:52;;;;;;;4.77;4.37;;;16.00;99.90;;;;;;4921292;29;20188;-89
2023/09/29 01:34:18;;;;;;;7.03;4.13;;;17.40;99.90;;;;;;4925956;29;20205;-89
2023/09/29 01:36:44;;;;;;;10.40;4.47;;;17.80;99.90;;;;;;4922600;29;20217;-89
2023/09/29 01:39:11;;;;;;;4.00;3.70;;;18.30;99.90;;;;;;4919018;29;20453;-89
2023/09/29 01:41:36;;;;;;;5.38;4.05;;;17.30;99.90;;;;;;4919484;29;20220;-89
2023/09/29 01:44:02;;;;;;;4.40;4.00;;;17.20;99.90;;;;;;4919606;29;20250;-89
2023/09/29 01:46:29;;;;;;;4.73;4.30;;;15.80;99.90;;;;;;4920219;29;20201;-89
2023/09/29 01:48:56;;;;;;;5.40;3.55;;;17.30;99.90;;;;;;4915723;29;20972;-89
2023/09/29 01:51:22;;;;;;;4.55;4.20;;;16.80;99.90;;;;;;4914815;29;20676;-90
2023/09/29 01:53:48;;;;;;;3.80;3.50;;;17.60;99.90;;;;;;4918330;29;20205;-89
2023/09/29 01:56:15;;;;;;;4.97;4.53;;;16.80;99.90;;;;;;4916166;29;20575;-89
2023/09/29 01:58:41;;;;;;;4.22;3.92;;;16.70;99.90;;;;;;4918523;29;20189;-90
2023/09/29 02:01:06;;;;;;;5.93;3.57;;;17.00;99.90;;;;;;4918939;29;20186;-89
2023/09/29 02:03:32;;;;;;;5.13;4.00;;;;;;;;;;4918709;29;20202;-89
2023/09/29 02:05:58;;;;;;;3.78;3.47;;;16.10;99.90;;;;;;4919347;29;20190;-89
2023/09/29 02:08:25;;;;;;;5.60;4.23;;;17.40;99.90;;;;;;4920315;29;20260;-89
2023/09/29 02:10:52;;;;;;;3.97;3.67;;;17.30;99.90;;;;;;4919781;29;20193;-89
2023/09/29 02:13:18;;;;;;;3.80;3.50;;;17.10;99.90;;;;;;4919874;29;20261;-89
2023/09/29 02:15:43;;;;;;;5.10;4.63;;;18.20;99.90;;;;;;4919424;29;20175;-90
2023/09/29 02:18:09;;;;;;;5.53;3.90;;;16.70;99.90;;;;;;4921921;29;20218;-89
2023/09/29 02:20:39;;;;;;;5.10;4.00;;;18.50;99.90;;;;;;4922407;29;20189;-88
2023/09/29 02:23:07;;;;;;;4.60;3.70;;;17.20;99.90;;;;;;4938567;28;20494;-90
2023/09/29 02:25:32;;;;;;;4.97;4.03;;;17.50;99.90;;;;;;4933202;28;20194;-91
2023/09/29 02:27:59;;;;;;;3.87;3.57;;;17.50;99.90;;;;;;4920999;29;20189;-90
2023/09/29 02:30:26;;;;;;;4.50;4.10;;;16.90;99.90;;;;;;4921451;29;20190;-90
2023/09/29 02:32:52;;;;;;;5.32;4.00;;;18.30;99.90;;;;;;4924039;29;20202;-91
2023/09/29 02:35:18;;;;;;;4.65;4.13;;;16.70;99.90;;;;;;4920174;29;20197;-88
2023/09/29 02:37:43;;;;;;;4.67;3.77;;;18.30;99.90;;;;;;4936467;28;20341;-89
2023/09/29 02:40:15;;;;;;;3.83;3.53;;;17.60;99.90;;;;;;4927292;28;20458;-89
2023/09/29 02:42:42;;;;;;;4.25;3.85;;;16.00;99.90;;;;;;4921537;29;20205;-89
2023/09/29 02:45:08;;;;;;;5.82;4.00;;;16.80;99.90;;;;;;4916960;29;20187;-90
2023/09/29 02:47:35;;;;;;;4.30;3.67;;;16.10;99.90;;;;;;4917037;29;20202;-90
2023/09/29 02:50:04;;;;;;;5.13;4.25;;;18.40;99.90;;;;;;4920099;29;20460;-90
2023/09/29 02:52:30;;;;;;;4.60;4.20;;;16.50;99.90;;;;;;4925972;29;20218;-88
2023/09/29 02:54:55;;;;;;;4.50;4.10;;;16.30;99.90;;;;;;4925241;29;20193;-88
2023/09/29 02:57:22;;;;;;;5.43;4.07;;;16.10;99.90;;;;;;4924794;29;20226;-89
2023/09/29 02:59:48;;;;;;;4.10;3.70;;;15.80;99.90;;;;;;4923298;29;20178;-91
2023/09/29 03:02:14;;;;;;;4.40;3.90;;;16.90;99.90;;;;;;4922320;29;20726;-90
2023/09/29 03:04:40;;;;;;;7.10;5.60;;;17.80;99.90;;;;;;4925346;29;20193;-90
2023/09/29 03:07:09;;;;;;;4.40;4.00;;;18.30;99.90;;;;;;4932325;29;20217;-90
2023/09/29 03:09:35;;;;;;;4.65;4.10;;;17.30;99.90;;;;;;4932997;29;20186;-90
2023/09/29 03:12:01;;;;;;;4.60;4.20;;;17.60;99.90;;;;;;4927562;29;20206;-91
2023/09/29 03:14:27;;;;;;;4.40;4.00;;;18.20;99.90;;;;;;4920912;29;20201;-89
2023/09/29 03:16:58;;;;;;;4.27;3.87;;;;;;;;;;4918509;29;20217;-89
2023/09/29 03:19:24;;;;;;;4.68;4.00;;;16.30;99.90;;;;;;4918042;29;20602;-89
2023/09/29 03:21:50;;;;;;;4.32;3.92;;;16.70;99.90;;;;;;4923001;29;20777;-89
2023/09/29 03:24:16;;;;;;;4.47;4.03;;;17.70;99.90;;;;;;4933553;29;20272;-91
2023/09/29 03:26:41;;;;;;;6.17;4.67;;;17.30;99.90;;;;;;4934059;29;20450;-88
2023/09/29 03:29:07;;;;;;;4.70;4.30;;;16.90;99.90;;;;;;4931298;29;20190;-89
2023/09/29 03:31:33;;;;;;;4.00;3.70;;;18.20;99.90;;;;;;4932438;29;20198;-89
2023/09/29 03:34:01;;;;;;;4.33;3.93;;;;;;;;;;4931861;29;20214;-89
2023/09/29 03:36:27;;;;;;;4.20;3.90;;;16.00;99.90;;;;;;4930334;29;20225;-89
2023/09/29 03:38:54;;;;;;;5.05;3.80;;;17.10;99.90;;;;;;4927269;29;20276;-89
2023/09/29 03:41:22;;;;;;;4.43;4.03;;;17.60;99.90;;;;;;4918357;29;20198;-90
2023/09/29 03:43:52;;;;;;;5.60;4.72;;;17.60;99.90;;;;;;4921242;29;20202;-89
2023/09/29 03:46:21;;;;;;;6.30;4.10;;;16.00;99.90;;;;;;4920719;29;20198;-90
2023/09/29 03:48:47;;;;;;;3.95;3.65;;;16.00;99.90;;;;;;4921108;29;20198;-89
2023/09/29 03:51:26;;;;;;;7.18;3.83;;;18.30;99.90;;;;;;4917453;29;20666;-89
2023/09/29 03:53:53;;;;;;;3.50;3.20;;;16.30;99.90;;;;;;4920441;29;20328;-90
2023/09/29 03:56:22;;;;;;;4.40;4.00;;;17.80;99.90;;;;;;4916281;29;20688;-90
2023/09/29 03:58:49;;;;;;;4.35;3.95;;;18.40;99.90;;;;;;4926714;28;20198;-89
2023/09/29 04:01:15;;;;;;;4.40;4.00;;;17.50;99.90;;;;;;4937302;28;20205;-91
2023/09/29 04:03:42;;;;;;;7.28;6.40;;;17.20;99.90;;;;;;4936957;28;20202;-89
2023/09/29 04:06:08;;;;;;;5.22;4.75;;;17.20;99.90;;;;;;4919467;29;20626;-91
2023/09/29 04:08:34;;;;;;;4.75;4.22;;;15.70;99.90;;;;;;4915150;29;20190;-91
2023/09/29 04:11:00;;;;;;;5.63;5.10;;;15.70;99.90;;;;;;4915047;29;20686;-91
2023/09/29 04:13:25;;;;;;;4.80;4.40;;;15.70;99.90;;;;;;4917704;29;20221;-91
2023/09/29 04:15:51;;;;;;;5.40;4.23;;;15.90;99.90;;;;;;4915535;29;20194;-90
2023/09/29 04:18:17;;;;;;;6.67;3.97;;;16.60;99.90;;;;;;4921624;29;20214;-91
2023/09/29 04:20:43;;;;;;;10.37;8.10;;;17.00;99.90;;;;;;4917470;29;20590;-90
2023/09/29 04:23:08;;;;;;;4.90;4.10;;;16.40;99.90;;;;;;4916744;29;20221;-91
2023/09/29 04:25:34;;;;;;;5.27;4.60;;;16.00;99.90;;;;;;4912273;29;20454;-90
2023/09/29 04:28:00;;;;;;;4.97;4.20;;;16.00;99.90;;;;;;4912333;29;20683;-90
2023/09/29 04:30:26;;;;;;;5.23;4.17;;;;;;;;;;4896773;29;20210;-90
2023/09/29 04:32:54;;;;;;;4.50;4.03;;;16.20;99.90;;;;;;4911450;29;20210;-90
2023/09/29 04:35:20;;;;;;;4.60;4.20;;;17.60;99.90;;;;;;4913238;29;20200;-90
2023/09/29 04:37:47;;;;;;;4.73;4.03;;;15.90;99.90;;;;;;4911559;29;20221;-90
2023/09/29 04:40:13;;;;;;;5.57;5.07;;;15.90;99.90;;;;;;4910854;29;20214;-90
2023/09/29 04:42:38;;;;;;;5.13;4.63;;;16.40;99.90;;;;;;4920461;29;20264;-90
2023/09/29 04:45:06;;;;;;;4.80;4.30;;;18.80;99.90;;;;;;4911913;29;20446;-90
2023/09/29 04:47:32;;;;;;;6.65;4.70;;;16.30;99.90;;;;;;4910760;29;20257;-90
2023/09/29 04:49:57;;;;;;;4.83;4.30;;;14.30;99.90;;;;;;4915722;29;20202;-90
2023/09/29 04:52:23;;;;;;;4.87;4.37;;;17.50;99.90;;;;;;4915936;29;20478;-89
2023/09/29 04:54:48;;;;;;;6.53;5.27;;;17.50;99.90;;;;;;4914363;29;20210;-89
2023/09/29 04:57:14;;;;;;;8.90;4.87;;;17.20;99.90;;;;;;4914343;29;20288;-90
2023/09/29 04:59:40;;;;;;;4.70;4.30;;;16.90;99.90;;;;;;4916269;29;20190;-90
2023/09/29 05:02:06;;;;;;;4.73;4.20;;;18.30;99.90;;;;;;4914056;29;20679;-90
2023/09/29 05:04:32;;;;;;;8.60;4.83;;;18.40;99.90;;;;;;4912871;29;20182;-89
2023/09/29 05:06:58;;;;;;;4.70;4.30;;;17.30;99.90;;;;;;4935239;28;20194;-89
2023/09/29 05:09:23;;;;;;;5.50;4.60;;;16.30;99.90;;;;;;4924660;29;20280;-90
2023/09/29 05:11:49;;;;;;;5.67;5.13;;;16.40;99.90;;;;;;4912501;29;20446;-89
2023/09/29 05:14:15;;;;;;;4.60;4.20;;;17.30;99.90;;;;;;4915154;29;20197;-89
2023/09/29 05:16:40;;;;;;;8.97;4.90;;;15.50;99.90;;;;;;4913771;29;20217;-90
2023/09/29 05:19:06;;;;;;;5.90;5.13;;;18.00;99.90;;;;;;4913964;29;20640;-90
2023/09/29 05:21:32;;;;;;;9.60;4.93;;;17.50;99.90;;;;;;4913825;29;20647;-90
2023/09/29 05:23:58;;;;;;;7.03;5.93;;;17.50;99.90;;;;;;4911714;29;20202;-90
2023/09/29 05:26:23;;;;;;;7.23;5.13;;;19.00;99.90;;;;;;4907815;29;20202;-90
2023/09/29 05:28:51;;;;;;;7.43;5.27;;;18.40;99.90;;;;;;4916180;29;20446;-90
2023/09/29 05:31:19;;;;;;;9.13;5.00;;;18.90;99.90;;;;;;4915672;29;20640;-91
2023/09/29 05:40:52;;;;;;;5.50;4.90;;;17.10;99.90;;;;;;4913297;29;20202;-91
2023/09/29 05:43:19;;;;;;;7.63;5.55;;;16.90;99.90;;;;;;4914697;29;20210;-89
2023/09/29 05:45:45;;;;;;;5.95;4.90;;;17.20;99.90;;;;;;4922714;29;20190;-86
2023/09/29 05:48:11;;;;;;;7.88;5.28;;;16.90;99.90;;;;;;4915713;29;20529;-86
2023/09/29 05:50:36;;;;;;;6.00;5.40;;;19.00;99.90;;;;;;4914277;29;20241;-87
2023/09/29 05:53:04;;;;;;;7.40;5.13;;;17.80;99.90;;;;;;4924561;29;20206;-87
2023/09/29 05:55:30;;;;;;;5.00;4.60;;;17.00;99.90;;;;;;4919301;29;20193;-87
2023/09/29 05:58:00;;;;;;;6.88;5.28;;;18.20;99.90;;;;;;4920552;29;20213;-90
2023/09/29 06:01:11;;;;;;;7.72;5.20;;;17.30;99.90;;;;;;4918175;29;20190;-88
2023/09/29 06:03:37;;;;;;;5.50;5.00;;;17.20;99.90;;;;;;4823570;29;20621;-87
2023/09/29 06:06:06;;;;;;;6.28;5.55;;;19.10;99.90;;;;;;4820991;29;20647;-88
2023/09/29 06:08:32;;;;;;;7.20;5.88;;;17.90;99.90;;;;;;4879766;29;20205;-88
2023/09/29 06:11:04;;;;;;;5.43;4.90;;;18.60;99.90;;;;;;4913710;29;20557;-89
2023/09/29 06:13:30;;;;;;;6.60;5.30;;;18.80;99.90;;;;;;4914421;29;20217;-90
2023/09/29 06:15:59;;;;;;;6.50;5.87;;;18.30;99.90;;;;;;4913948;29;20197;-89
2023/09/29 06:18:28;;;;;;;7.15;5.28;;;19.90;99.90;;;;;;4915897;29;20213;-89
2023/09/29 06:29:44;;;;;;;;;;;;;;;;;;;;;
2023/09/29 06:32:38;;;;;;;5.43;4.93;;;18.70;99.90;;;;;;4927874;29;20224;-91
2023/09/29 06:35:44;;;;;;;;;;;;;;;;;;;;;
2023/09/29 06:59:39;;;;;;;6.03;5.13;;;19.50;99.90;;;;;;5936826;23;20669;-89
2023/09/29 07:02:18;;;;;;;;;;;;;;;;;;;;;
2023/09/29 07:05:27;;;;;;;9.30;5.75;;;19.80;99.90;;;;;;4934586;29;20283;-90
2023/09/29 07:07:52;;;;;;;6.35;5.63;;;22.10;99.90;;;;;;4935282;29;20259;-90
2023/09/29 07:10:20;;;;;;;5.88;5.28;;;21.60;99.90;;;;;;4930566;29;20663;-90
2023/09/29 07:12:49;;;;;;;9.00;6.40;;;22.30;99.90;;;;;;4950579;23;20721;-90
2023/09/29 07:15:15;;;;;;;6.35;5.63;;;22.10;99.90;;;;;;4924356;29;20993;-90
2023/09/29 07:17:45;;;;;;;9.60;6.50;;;20.50;99.90;;;;;;4936204;29;20224;-90
2023/09/29 07:20:16;;;;;;;6.05;5.40;;;20.60;99.90;;;;;;4938770;29;20677;-86
2023/09/29 07:30:23;;;;;;;6.13;5.53;;;21.30;99.10;;;;;;4969136;28;20230;-88
2023/09/29 07:36:05;;;;;;;5.63;4.93;;;22.60;99.40;;;;;;4927311;28;21058;-87
2023/09/29 07:38:30;;;;;;;6.22;5.63;;;21.90;97.60;;;;;;4967945;28;20456;-88
2023/09/29 07:40:56;;;;;;;5.27;4.77;;;22.70;97.50;;;;;;4969386;28;20184;-87
2023/09/29 07:43:22;;;;;;;6.57;5.50;;;22.80;97.50;;;;;;4968804;28;20287;-88
2023/09/29 07:45:48;;;;;;;5.63;5.03;;;22.60;97.40;;;;;;4962894;28;20665;-87
2023/09/29 07:48:14;;;;;;;6.73;4.63;;;24.90;98.00;;;;;;4958765;28;20453;-87
2023/09/29 07:50:40;;;;;;;6.00;4.73;;;22.80;96.50;;;;;;4966857;28;20195;-84
2023/09/29 07:53:05;;;;;;;5.33;4.40;;;21.80;96.00;;;;;;4963940;28;20566;-86
2023/09/29 07:55:31;;;;;;;10.10;6.27;;;22.10;95.90;;;;;;4967285;28;20192;-84
2023/09/29 07:57:57;;;;;;;5.70;4.57;;;22.00;95.80;;;;;;4962851;28;20228;-84
2023/09/29 08:00:23;;;;;;;14.40;5.03;;;22.30;95.50;;;;;;4966879;28;20279;-86
2023/09/29 08:02:49;;;;;;;7.70;4.30;;;22.60;94.70;;;;;;4959580;28;20556;-87
2023/09/29 08:05:17;;;;;;;6.10;4.80;;;22.80;94.20;;;;;;4965010;28;20456;-87
2023/09/29 08:07:43;;;;;;;4.80;4.27;;;23.00;93.90;;;;;;4961955;28;20199;-88
2023/09/29 08:10:13;;;;;;;6.17;4.10;;;23.40;93.60;;;;;;4968659;28;20439;-88
2023/09/29 08:12:52;;;;;;;6.00;4.53;;;23.60;93.60;;;;;;4966046;28;20200;-89
2023/09/29 08:15:21;;;;;;;5.67;5.10;;;23.50;93.20;;;;;;4966660;28;20447;-88
2023/09/29 08:25:07;;;;;;;;;;;;;;;;;;;;;
2023/09/29 08:35:00;;;;;;;4.20;3.83;;;24.50;90.60;;;;;;5380309;23;20601;-88
2023/09/29 08:37:42;;;;;;;;;;;;;;;;;;;;;
2023/09/29 08:40:14;;;;;;;5.17;4.20;;;24.50;92.50;;;;;;4953898;28;20525;-89
2023/09/29 08:42:45;;;;;;;4.80;4.40;;;24.50;91.10;;;;;;4932550;29;20466;-89
2023/09/29 08:45:18;;;;;;;5.53;5.00;;;24.50;91.20;;;;;;4932161;29;20458;-89
2023/09/29 08:51:19;;;;;;;6.30;4.13;;;24.50;91.10;;;;;;4924393;29;20451;-90
2023/09/29 08:56:56;;;;;;;8.57;4.27;;;25.20;91.60;;;;;;4908579;29;20463;-91
2023/09/29 08:59:22;;;;;;;8.53;5.10;;;25.00;93.30;;;;;;4934021;29;20442;-90
2023/09/29 09:01:49;;;;;;;5.80;5.20;;;24.70;92.10;;;;;;4932509;29;20881;-88
2023/09/29 09:07:24;;;;;;;3.83;3.53;;;24.70;91.80;;;;;;4857879;29;20518;-89
2023/09/29 09:09:53;;;;;;;4.60;4.20;;;24.20;92.40;;;;;;4914649;29;20463;-92
2023/09/29 09:12:30;;;;;;;4.60;3.70;;;25.80;91.50;;;;;;4932529;29;20507;-90
2023/09/29 09:14:56;;;;;;;4.83;3.53;;;26.20;91.10;;;;;;4943999;28;20452;-89
2023/09/29 09:17:28;;;;;;;4.20;3.80;;;26.50;91.90;;;;;;4939005;28;21033;-90
2023/09/29 09:19:54;;;;;;;6.93;3.90;;;27.70;92.10;;;;;;4920358;29;20324;-90
2023/09/29 09:22:32;;;;;;;5.57;3.23;;;25.90;89.60;;;;;;4934685;29;20907;-89
2023/09/29 09:24:59;;;;;;;3.47;3.17;;;27.30;88.90;;;;;;4933683;29;20192;-90
2023/09/29 09:27:25;;;;;;;3.80;3.40;;;26.40;86.40;;;;;;4932550;29;20819;-91
2023/09/29 09:29:51;;;;;;;5.93;3.33;;;26.40;85.60;;;;;;4937594;29;20446;-90
2023/09/29 09:32:27;;;;;;;3.57;3.10;;;27.80;82.60;;;;;;4935428;29;20477;-91
2023/09/29 09:34:52;;;;;;;3.37;3.07;;;29.20;80.00;;;;;;4932740;29;20223;-90
2023/09/29 09:37:28;;;;;;;5.13;3.63;;;27.80;79.00;;;;;;4930496;29;20473;-91
2023/09/29 09:42:43;;;;;;;6.80;3.33;;;28.80;72.60;;;;;;4942016;28;20528;-90
2023/09/29 09:45:37;;;;;;;3.13;2.90;;;32.00;73.40;;;;;;4952228;28;20460;-88
2023/09/29 09:48:11;;;;;;;3.10;2.90;;;29.90;67.10;;;;;;4933962;29;20197;-88
2023/09/29 09:50:42;;;;;;;3.40;2.90;;;30.40;67.10;;;;;;4932991;29;20976;-89
2023/09/29 09:53:09;;;;;;;2.70;2.47;;;30.00;65.40;;;;;;4935790;29;20525;-89
2023/09/29 09:56:10;;;;;;;3.73;3.43;;;30.90;65.70;;;;;;4934581;29;20453;-89
2023/09/29 09:58:48;;;;;;;3.00;2.80;;;30.10;65.40;;;;;;4942093;29;20464;-91
2023/09/29 10:01:14;;;;;;;7.07;3.57;;;31.80;70.00;;;;;;4942820;29;20441;-91
2023/09/29 10:03:40;;;;;;;3.33;3.03;;;29.90;67.40;;;;;;4951195;28;20481;-92
2023/09/29 10:06:07;;;;;;;4.40;3.20;;;29.90;66.20;;;;;;4934850;29;20523;-88
2023/09/29 10:08:33;;;;;;;3.80;3.07;;;29.60;66.30;;;;;;4939085;29;20458;-86
2023/09/29 10:11:31;;;;;;;3.80;3.00;;;29.30;66.10;;;;;;4945204;29;20438;-89
2023/09/29 10:14:06;;;;;;;7.00;3.27;;;29.60;67.60;;;;;;4895157;29;20263;-87
2023/09/29 10:16:31;;;;;;;3.97;3.53;;;30.80;67.40;;;;;;4898063;29;20997;-79
2023/09/29 10:19:06;;;;;;;5.27;3.77;;;30.60;66.90;;;;;;4936543;29;20457;-80
2023/09/29 10:21:41;;;;;;;3.30;3.00;;;30.60;67.90;;;;;;4940301;29;20200;-81
2023/09/29 10:24:08;;;;;;;3.67;3.37;;;28.90;67.20;;;;;;4939985;29;20482;-81
2023/09/29 10:26:48;;;;;;;3.57;3.20;;;28.50;68.30;;;;;;4937465;29;20454;-79
2023/09/29 10:29:28;;;;;;;4.07;3.70;;;28.40;69.10;;;;;;4935088;29;20454;-82
2023/09/29 10:32:14;;;;;;;3.63;3.17;;;28.40;69.40;;;;;;4935860;29;20522;-82
2023/09/29 10:34:40;;;;;;;4.27;3.77;;;28.20;69.20;;;;;;4938308;29;20508;-82
2023/09/29 10:37:06;;;;;;;3.23;2.90;;;28.20;70.30;;;;;;4937968;29;20470;-83
2023/09/29 10:39:32;;;;;;;3.60;3.30;;;28.40;70.80;;;;;;4933333;29;20434;-81
2023/09/29 10:42:14;;;;;;;4.10;2.67;;;28.40;70.60;;;;;;4934137;29;20475;-84
2023/09/29 10:44:52;;;;;;;3.13;2.93;;;28.30;70.80;;;;;;4950083;29;20191;-83
2023/09/29 10:47:38;;;;;;;4.00;3.10;;;28.20;69.90;;;;;;4941660;29;20513;-82
2023/09/29 10:50:05;;;;;;;6.70;2.97;;;28.40;69.50;;;;;;4937441;29;20536;-82
2023/09/29 10:52:31;;;;;;;5.10;3.83;;;28.80;68.80;;;;;;4933453;29;20544;-82
2023/09/29 10:54:58;;;;;;;3.20;2.90;;;29.40;67.90;;;;;;4935630;29;20528;-82
2023/09/29 10:57:28;;;;;;;3.73;3.40;;;30.00;65.40;;;;;;4936473;29;20264;-80
2023/09/29 10:59:59;;;;;;;3.93;3.43;;;30.30;64.00;;;;;;4936740;29;20446;-81
2023/09/29 11:02:35;;;;;;;8.97;4.60;;;30.20;64.30;;;;;;4933953;29;20556;-81
2023/09/29 11:05:05;;;;;;;4.37;2.90;;;30.10;65.50;;;;;;4925976;29;20889;-81
2023/09/29 11:07:50;;;;;;;5.87;4.17;;;29.90;65.30;;;;;;4935106;29;20445;-80
2023/09/29 11:10:19;;;;;;;4.80;3.63;;;29.80;65.80;;;;;;4933212;29;20590;-79
2023/09/29 11:12:48;;;;;;;4.10;3.80;;;29.60;66.30;;;;;;4933746;29;21810;-80
2023/09/29 11:15:15;;;;;;;5.70;5.30;;;29.90;67.60;;;;;;4933637;29;20452;-81
2023/09/29 11:17:46;;;;;;;5.30;3.90;;;29.50;67.30;;;;;;4933411;29;20468;-79
2023/09/29 11:20:27;;;;;;;4.67;4.00;;;29.80;68.00;;;;;;4935860;29;20455;-79
2023/09/29 11:23:01;;;;;;;3.57;3.30;;;29.70;67.90;;;;;;4935200;29;20471;-80
2023/09/29 11:25:26;;;;;;;3.50;3.20;;;29.70;68.50;;;;;;4929866;29;20557;-81
2023/09/29 11:27:52;;;;;;;4.33;3.93;;;29.80;69.30;;;;;;4933061;29;20559;-80
2023/09/29 11:30:24;;;;;;;6.37;3.90;;;29.50;69.40;;;;;;4931880;29;20283;-80
2023/09/29 11:32:50;;;;;;;5.10;3.77;;;29.40;70.80;;;;;;4932174;29;20209;-82
2023/09/29 11:35:16;;;;;;;6.70;3.60;;;29.20;70.70;;;;;;4936142;29;20940;-83
2023/09/29 11:37:43;;;;;;;4.93;4.10;;;30.00;72.00;;;;;;4932336;29;20563;-83
2023/09/29 11:40:12;;;;;;;4.50;4.10;;;29.30;72.00;;;;;;4932165;29;20448;-82
2023/09/29 11:42:39;;;;;;;4.00;3.60;;;29.20;72.00;;;;;;4934448;29;20587;-84
2023/09/29 11:45:08;;;;;;;4.33;3.93;;;30.00;73.50;;;;;;4933606;29;20436;-79
2023/09/29 11:47:35;;;;;;;3.97;3.67;;;29.10;71.70;;;;;;4934109;29;20457;-81
2023/09/29 11:50:02;;;;;;;4.70;3.73;;;29.10;72.30;;;;;;4936103;29;20447;-80
2023/09/29 11:52:27;;;;;;;4.03;3.63;;;29.00;72.60;;;;;;4934856;29;20481;-79
2023/09/29 11:54:53;;;;;;;6.03;4.10;;;29.00;72.80;;;;;;4934388;29;20453;-79
2023/09/29 11:57:18;;;;;;;5.03;3.90;;;29.60;72.60;;;;;;4937435;29;20252;-80
2023/09/29 11:59:44;;;;;;;5.40;3.60;;;29.30;72.90;;;;;;4934323;29;20185;-79
2023/09/29 12:02:10;;;;;;;5.10;4.00;;;29.10;72.20;;;;;;4930495;29;20220;-82
2023/09/29 12:04:35;;;;;;;5.57;3.67;;;29.30;71.40;;;;;;4930358;29;20195;-83
2023/09/29 12:07:04;;;;;;;4.17;3.77;;;29.80;71.80;;;;;;4931931;29;20201;-81
2023/09/29 12:09:29;;;;;;;4.50;3.90;;;29.60;70.70;;;;;;4934435;29;20654;-81
2023/09/29 12:11:55;;;;;;;6.00;3.93;;;29.60;71.00;;;;;;4933408;29;20524;-81
2023/09/29 12:14:21;;;;;;;4.90;4.00;;;29.60;72.20;;;;;;4933742;29;20193;-82
2023/09/29 12:16:47;;;;;;;5.80;4.00;;;29.20;72.50;;;;;;4932993;29;20228;-81
2023/09/29 12:19:12;;;;;;;5.17;4.40;;;29.20;72.60;;;;;;4933477;29;20447;-79
2023/09/29 12:21:38;;;;;;;3.80;3.50;;;29.20;72.60;;;;;;4933881;29;20191;-80
2023/09/29 12:24:04;;;;;;;4.07;3.57;;;29.70;72.00;;;;;;4936055;29;20288;-80
2023/09/29 12:26:30;;;;;;;5.10;3.70;;;29.10;70.90;;;;;;4933779;29;20195;-81
2023/09/29 12:28:55;;;;;;;3.70;3.40;;;29.40;72.10;;;;;;4934178;29;20456;-81
2023/09/29 12:31:21;;;;;;;3.67;3.33;;;29.00;70.90;;;;;;4933091;29;20192;-79
2023/09/29 12:33:46;;;;;;;3.63;3.33;;;29.20;71.00;;;;;;4933549;29;20746;-81
2023/09/29 12:36:12;;;;;;;4.20;3.90;;;29.60;71.40;;;;;;4933551;29;20189;-81
2023/09/29 12:38:37;;;;;;;3.90;3.60;;;29.40;71.30;;;;;;4935387;29;21510;-80
2023/09/29 12:41:03;;;;;;;4.80;3.50;;;29.80;70.90;;;;;;4935961;29;20192;-83
2023/09/29 12:43:28;;;;;;;3.80;3.50;;;29.50;71.00;;;;;;4933614;29;20214;-86
2023/09/29 12:45:55;;;;;;;3.93;3.60;;;30.50;72.20;;;;;;4926606;29;20195;-81
2023/09/29 12:48:20;;;;;;;4.37;3.43;;;29.50;69.10;;;;;;4943483;28;20200;-82
2023/09/29 12:50:46;;;;;;;3.30;3.00;;;29.20;68.50;;;;;;4936173;29;20525;-83
2023/09/29 12:53:12;;;;;;;3.67;3.23;;;29.00;68.30;;;;;;4931946;29;20204;-85
2023/09/29 12:55:38;;;;;;;3.23;2.97;;;29.30;67.10;;;;;;4931128;29;20196;-85
2023/09/29 12:58:05;;;;;;;2.80;2.60;;;29.20;66.30;;;;;;4930241;29;20227;-84
2023/09/29 13:00:34;;;;;;;3.57;3.30;;;29.00;66.00;;;;;;4930826;29;20436;-85
2023/09/29 13:03:04;;;;;;;3.00;2.70;;;29.20;66.90;;;;;;4932484;29;20467;-84
2023/09/29 13:05:35;;;;;;;3.30;3.00;;;29.30;67.30;;;;;;4931070;29;20483;-83
2023/09/29 13:08:03;;;;;;;3.93;3.13;;;28.70;66.80;;;;;;4930261;29;20467;-85
2023/09/29 13:10:31;;;;;;;3.57;3.27;;;28.90;67.20;;;;;;4931341;29;20449;-83
2023/09/29 13:12:56;;;;;;;2.77;2.57;;;29.50;67.00;;;;;;4931569;29;20475;-85
2023/09/29 13:15:22;;;;;;;4.43;3.60;;;28.80;64.70;;;;;;4932165;29;20442;-84
2023/09/29 13:17:48;;;;;;;4.20;3.23;;;29.40;66.00;;;;;;4931915;29;20245;-84
2023/09/29 13:20:14;;;;;;;3.03;2.73;;;29.30;65.90;;;;;;4929107;29;20564;-85
2023/09/29 13:22:40;;;;;;;3.50;2.80;;;28.70;65.70;;;;;;4932388;29;20457;-84
2023/09/29 13:25:06;;;;;;;2.57;2.37;;;28.70;65.90;;;;;;4930752;29;20603;-85
2023/09/29 13:27:34;;;;;;;3.20;3.00;;;28.80;66.00;;;;;;4931435;29;21003;-85
2023/09/29 13:30:00;;;;;;;5.83;2.80;;;28.90;66.70;;;;;;4930383;29;20525;-84
2023/09/29 13:32:25;;;;;;;6.40;2.80;;;29.00;66.50;;;;;;4940117;28;21009;-85
2023/09/29 13:34:52;;;;;;;3.60;3.30;;;29.40;66.70;;;;;;4934203;29;20230;-85
2023/09/29 13:37:18;;;;;;;3.20;3.00;;;29.20;67.20;;;;;;4930841;29;20261;-85
2023/09/29 13:39:50;;;;;;;3.13;2.90;;;29.60;68.50;;;;;;4931147;29;20495;-85
2023/09/29 13:42:16;;;;;;;4.27;3.87;;;28.80;68.40;;;;;;4931708;29;20819;-85
2023/09/29 13:44:41;;;;;;;3.53;3.23;;;28.60;68.60;;;;;;4931513;29;20455;-84
2023/09/29 13:47:07;;;;;;;3.63;3.00;;;28.50;69.60;;;;;;4929247;29;20232;-85
2023/09/29 13:49:32;;;;;;;3.77;3.30;;;28.90;69.50;;;;;;4928678;29;20195;-84
2023/09/29 13:51:58;;;;;;;5.60;4.97;;;28.50;69.70;;;;;;4933649;29;20690;-85
2023/09/29 13:54:24;;;;;;;4.37;3.80;;;28.80;70.50;;;;;;4932751;29;20195;-85
2023/09/29 13:56:49;;;;;;;3.77;3.47;;;29.00;70.40;;;;;;4933532;29;20751;-86
2023/09/29 13:59:15;;;;;;;3.50;3.20;;;28.80;69.60;;;;;;4932898;29;21878;-84
2023/09/29 14:01:42;;;;;;;3.60;3.30;;;29.00;69.90;;;;;;4932191;29;20202;-85
2023/09/29 14:04:07;;;;;;;4.10;3.53;;;29.00;70.30;;;;;;4931462;29;20286;-85
2023/09/29 14:06:33;;;;;;;3.80;3.50;;;29.00;70.50;;;;;;4931808;29;20554;-85
2023/09/29 14:08:58;;;;;;;4.03;3.73;;;28.70;70.70;;;;;;4930715;29;20188;-85
2023/09/29 14:11:24;;;;;;;3.97;3.47;;;28.80;71.00;;;;;;4927110;29;20228;-85
2023/09/29 14:13:49;;;;;;;4.10;3.63;;;29.30;71.00;;;;;;4933320;29;20236;-85
2023/09/29 14:16:15;;;;;;;3.63;3.40;;;29.40;70.70;;;;;;4936611;29;20248;-87
2023/09/29 14:18:42;;;;;;;3.80;3.50;;;29.60;70.60;;;;;;4936024;29;20224;-85